createdAt,value
2019-01-13T00:02:21.083Z,4.30
2019-01-13T00:04:53.229Z,4.40
2019-01-13T00:07:28.507Z,4.45
2019-01-13T00:10:00.657Z,4.33
2019-01-13T00:12:35.533Z,4.63
2019-01-13T00:15:00.171Z,4.38
2019-01-13T00:17:28.824Z,4.78
2019-01-13T00:19:57.162Z,4.83
2019-01-13T00:22:25.586Z,4.89
2019-01-13T00:24:53.641Z,4.86
2019-01-13T00:27:22.152Z,4.94
2019-01-13T00:29:52.552Z,5.06
2019-01-13T00:32:23.998Z,5.13
2019-01-13T00:34:55.201Z,4.78
2019-01-13T00:37:44.803Z,4.94
2019-01-13T00:40:14.759Z,4.97
2019-01-13T00:42:55.398Z,4.83
2019-01-13T00:45:37.417Z,5.00
2019-01-13T00:48:05.589Z,5.20
2019-01-13T00:50:33.991Z,5.06
2019-01-13T00:53:02.003Z,5.17
2019-01-13T00:55:30.478Z,5.17
2019-01-13T00:57:58.886Z,5.23
2019-01-13T01:00:27.540Z,5.13
2019-01-13T01:02:55.711Z,5.74
2019-01-13T01:05:26.870Z,5.26
2019-01-13T01:07:54.496Z,5.66
2019-01-13T01:10:23.927Z,5.51
2019-01-13T01:12:52.510Z,5.54
2019-01-13T01:15:20.526Z,5.45
2019-01-13T01:17:48.858Z,5.52
2019-01-13T01:20:17.351Z,5.48
2019-01-13T01:22:45.628Z,5.57
2019-01-13T01:25:15.552Z,5.66
2019-01-13T01:27:43.800Z,5.71
2019-01-13T01:30:13.832Z,5.59
2019-01-13T01:32:42.346Z,5.68
2019-01-13T01:35:11.863Z,5.73
2019-01-13T01:37:41.275Z,5.65
2019-01-13T01:40:11.946Z,5.70
2019-01-13T01:42:40.443Z,5.97
2019-01-13T01:45:09.626Z,6.07
2019-01-13T01:47:37.642Z,6.03
2019-01-13T01:50:06.055Z,6.18
2019-01-13T01:52:34.421Z,5.93
2019-01-13T01:55:02.831Z,6.04
2019-01-13T01:57:31.474Z,6.06
2019-01-13T01:59:59.685Z,6.08
2019-01-13T02:02:28.736Z,5.92
2019-01-13T02:04:56.849Z,6.21
2019-01-13T02:07:25.277Z,6.09
2019-01-13T02:09:53.314Z,6.25
2019-01-13T02:12:21.900Z,6.25
2019-01-13T02:14:49.968Z,6.25
2019-01-13T02:17:17.998Z,6.29
2019-01-13T02:19:46.046Z,6.12
2019-01-13T02:22:14.178Z,6.36
2019-01-13T02:24:42.535Z,6.31
2019-01-13T02:27:11.039Z,6.39
2019-01-13T02:29:39.429Z,6.44
2019-01-13T02:32:08.196Z,6.59
2019-01-13T02:34:36.894Z,6.46
2019-01-13T02:37:05.003Z,6.51
2019-01-13T02:39:33.043Z,6.55
2019-01-13T02:42:01.437Z,6.58
2019-01-13T02:44:29.906Z,6.58
2019-01-13T02:46:58.384Z,6.51
2019-01-13T02:49:32.833Z,6.57
2019-01-13T02:52:01.115Z,6.38
2019-01-13T02:54:29.497Z,6.56
2019-01-13T02:56:57.690Z,6.33
2019-01-13T02:59:25.746Z,6.09
2019-01-13T03:01:54.114Z,5.88
2019-01-13T03:04:22.255Z,5.96
2019-01-13T03:06:50.825Z,5.97
2019-01-13T03:09:18.854Z,5.97
2019-01-13T03:11:47.194Z,6.06
2019-01-13T03:14:15.475Z,6.04
2019-01-13T03:16:43.919Z,5.97
2019-01-13T03:19:11.973Z,5.81
2019-01-13T03:21:40.398Z,5.67
2019-01-13T03:24:09.142Z,5.72
2019-01-13T03:26:37.602Z,5.91
2019-01-13T03:29:05.771Z,5.98
2019-01-13T03:31:33.862Z,5.90
2019-01-13T03:34:02.328Z,5.81
2019-01-13T03:36:30.340Z,5.87
2019-01-13T03:38:58.359Z,5.96
2019-01-13T03:41:26.410Z,6.15
2019-01-13T03:43:54.731Z,6.36
2019-01-13T03:46:23.060Z,6.40
2019-01-13T03:48:51.739Z,6.48
2019-01-13T03:51:20.331Z,6.28
2019-01-13T03:53:48.482Z,6.16
2019-01-13T03:56:16.645Z,6.31
2019-01-13T03:58:44.651Z,6.26
2019-01-13T04:01:18.526Z,6.31
2019-01-13T04:03:43.243Z,6.30
2019-01-13T04:06:11.528Z,6.47
2019-01-13T04:08:39.951Z,6.44
2019-01-13T04:11:08.390Z,6.40
2019-01-13T04:13:36.499Z,6.61
2019-01-13T04:16:05.454Z,6.54
2019-01-13T04:18:34.654Z,6.55
2019-01-13T04:21:03.222Z,6.54
2019-01-13T04:23:31.612Z,6.42
2019-01-13T04:25:59.670Z,6.52
2019-01-13T04:28:28.175Z,6.42
2019-01-13T04:30:56.753Z,6.47
2019-01-13T04:33:24.772Z,6.61
2019-01-13T04:35:53.332Z,6.60
2019-01-13T04:38:21.483Z,6.84
2019-01-13T04:40:49.977Z,6.73
2019-01-13T04:43:18.428Z,6.66
2019-01-13T04:45:46.917Z,6.66
2019-01-13T04:48:14.995Z,6.70
2019-01-13T04:50:43.757Z,6.85
2019-01-13T04:53:12.482Z,6.97
2019-01-13T04:55:40.940Z,7.04
2019-01-13T04:58:09.171Z,7.13
2019-01-13T05:00:37.571Z,7.22
2019-01-13T05:03:05.579Z,7.33
2019-01-13T05:05:33.702Z,7.23
2019-01-13T05:08:01.722Z,7.28
2019-01-13T05:10:29.829Z,7.47
2019-01-13T05:12:58.193Z,7.38
2019-01-13T05:15:26.655Z,7.41
2019-01-13T05:17:55.029Z,7.38
2019-01-13T05:20:23.169Z,7.39
2019-01-13T05:22:51.502Z,7.44
2019-01-13T05:25:19.873Z,7.40
2019-01-13T05:27:48.025Z,7.54
2019-01-13T05:30:17.239Z,7.53
2019-01-13T05:32:45.473Z,7.44
2019-01-13T05:35:13.660Z,7.37
2019-01-13T05:37:41.786Z,7.43
2019-01-13T05:40:10.911Z,7.53
2019-01-13T05:42:38.933Z,7.35
2019-01-13T05:45:08.241Z,7.14
2019-01-13T05:47:36.682Z,6.89
2019-01-13T05:50:05.390Z,6.82
2019-01-13T05:52:33.769Z,6.73
2019-01-13T05:55:01.903Z,6.62
2019-01-13T05:57:30.092Z,6.68
2019-01-13T05:59:58.226Z,6.61
2019-01-13T06:02:26.378Z,6.28
2019-01-13T06:04:54.888Z,6.28
2019-01-13T06:07:22.903Z,6.53
2019-01-13T06:09:51.628Z,6.49
2019-01-13T06:12:19.663Z,6.55
2019-01-13T06:14:48.454Z,6.52
2019-01-13T06:17:16.598Z,6.64
2019-01-13T06:19:44.744Z,6.59
2019-01-13T06:22:13.071Z,6.48
2019-01-13T06:24:41.436Z,6.41
2019-01-13T06:27:09.926Z,6.63
2019-01-13T06:29:38.429Z,6.46
2019-01-13T06:32:06.921Z,6.46
2019-01-13T06:34:35.271Z,6.60
2019-01-13T06:37:03.318Z,6.56
2019-01-13T06:39:31.719Z,6.63
2019-01-13T06:41:59.882Z,6.56
2019-01-13T06:44:28.299Z,6.66
2019-01-13T06:46:56.755Z,6.70
2019-01-13T06:49:26.014Z,6.92
2019-01-13T06:51:54.105Z,6.76
2019-01-13T06:54:22.194Z,6.80
2019-01-13T06:56:51.331Z,6.52
2019-01-13T06:59:19.978Z,6.53
2019-01-13T07:01:48.488Z,6.55
2019-01-13T07:04:16.994Z,6.68
2019-01-13T07:06:45.866Z,6.70
2019-01-13T07:09:14.016Z,6.62
2019-01-13T07:11:42.130Z,6.60
2019-01-13T07:14:10.619Z,6.52
2019-01-13T07:16:39.050Z,6.62
2019-01-13T07:19:07.096Z,6.61
2019-01-13T07:21:35.159Z,7.15
2019-01-13T07:24:03.264Z,7.08
2019-01-13T07:26:31.745Z,6.63
2019-01-13T07:28:59.808Z,6.85
2019-01-13T07:31:28.289Z,6.59
2019-01-13T07:33:56.418Z,6.49
2019-01-13T07:36:24.479Z,6.63
2019-01-13T07:38:52.734Z,6.51
2019-01-13T07:41:20.826Z,6.49
2019-01-13T07:43:50.323Z,6.58
2019-01-13T07:46:19.197Z,6.62
2019-01-13T07:48:47.906Z,6.58
2019-01-13T07:51:16.465Z,6.42
2019-01-13T07:53:44.691Z,6.55
2019-01-13T07:56:12.948Z,6.34
2019-01-13T07:58:41.288Z,6.44
2019-01-13T08:01:10.173Z,6.17
2019-01-13T08:03:38.547Z,6.31
2019-01-13T08:06:06.934Z,6.14
2019-01-13T08:08:35.432Z,6.22
2019-01-13T08:11:04.323Z,6.25
2019-01-13T08:13:33.805Z,6.52
2019-01-13T08:16:02.189Z,6.65
2019-01-13T08:18:30.578Z,6.62
2019-01-13T08:20:58.613Z,6.48
2019-01-13T08:23:26.961Z,6.46
2019-01-13T08:25:55.628Z,6.46
2019-01-13T08:28:23.854Z,6.19
2019-01-13T08:30:51.918Z,6.28
2019-01-13T08:33:20.609Z,6.42
2019-01-13T08:35:48.696Z,6.50
2019-01-13T08:38:16.834Z,6.32
2019-01-13T08:40:45.287Z,6.30
2019-01-13T08:43:13.656Z,6.52
2019-01-13T08:45:42.173Z,6.13
2019-01-13T08:48:10.332Z,6.12
2019-01-13T08:50:38.768Z,6.06
2019-01-13T08:53:06.808Z,6.04
2019-01-13T08:55:34.896Z,5.96
2019-01-13T08:58:02.918Z,6.28
2019-01-13T09:00:32.782Z,6.32
2019-01-13T09:03:01.160Z,6.31
2019-01-13T09:05:29.305Z,6.38
2019-01-13T09:07:57.668Z,6.31
2019-01-13T09:10:25.684Z,6.37
2019-01-13T09:12:56.862Z,6.34
2019-01-13T09:15:24.541Z,5.96
2019-01-13T09:17:52.688Z,5.96
2019-01-13T09:20:21.692Z,6.06
2019-01-13T09:22:50.097Z,6.13
2019-01-13T09:25:18.373Z,6.28
2019-01-13T09:27:46.698Z,6.20
2019-01-13T09:30:19.174Z,6.18
2019-01-13T09:32:47.406Z,6.28
2019-01-13T09:35:15.661Z,6.09
2019-01-13T09:37:43.758Z,6.24
2019-01-13T09:40:13.145Z,5.98
2019-01-13T09:42:41.225Z,5.79
2019-01-13T09:45:10.371Z,5.99
2019-01-13T09:47:38.482Z,6.01
2019-01-13T09:50:07.942Z,6.03
2019-01-13T09:52:35.980Z,5.72
2019-01-13T09:55:05.015Z,6.30
2019-01-13T09:57:33.082Z,5.69
2019-01-13T10:00:01.257Z,5.51
2019-01-13T10:02:29.326Z,5.86
2019-01-13T10:04:57.360Z,6.01
2019-01-13T10:07:25.406Z,6.01
2019-01-13T10:09:53.452Z,5.82
2019-01-13T10:12:21.492Z,5.86
2019-01-13T10:14:49.708Z,5.78
2019-01-13T10:17:17.721Z,5.81
2019-01-13T10:19:45.866Z,5.70
2019-01-13T10:22:14.579Z,5.78
2019-01-13T10:24:42.734Z,5.64
2019-01-13T10:27:10.931Z,5.64
2019-01-13T10:29:38.975Z,5.67
2019-01-13T10:32:07.125Z,5.61
2019-01-13T10:34:35.247Z,5.61
2019-01-13T10:37:03.374Z,5.65
2019-01-13T10:39:31.538Z,5.53
2019-01-13T10:41:59.968Z,5.89
2019-01-13T10:44:28.395Z,5.62
2019-01-13T10:46:56.686Z,5.69
2019-01-13T10:49:24.798Z,5.79
2019-01-13T10:51:53.196Z,5.80
2019-01-13T10:54:21.607Z,5.72
2019-01-13T10:56:50.115Z,5.66
2019-01-13T10:59:18.226Z,5.48
2019-01-13T11:01:46.296Z,5.83
2019-01-13T11:04:14.613Z,5.70
2019-01-13T11:06:42.637Z,5.93
2019-01-13T11:09:14.036Z,5.57
2019-01-13T11:11:42.168Z,5.59
2019-01-13T11:14:10.215Z,5.64
2019-01-13T11:16:38.378Z,6.03
2019-01-13T11:19:06.729Z,6.11
2019-01-13T11:21:34.775Z,5.82
2019-01-13T11:24:03.282Z,5.82
2019-01-13T11:26:31.464Z,5.99
2019-01-13T11:28:59.564Z,5.74
2019-01-13T11:31:28.031Z,5.78
2019-01-13T11:33:56.070Z,5.79
2019-01-13T11:36:24.157Z,5.73
2019-01-13T11:38:52.272Z,5.48
2019-01-13T11:41:20.378Z,5.59
2019-01-13T11:43:48.542Z,5.64
2019-01-13T11:46:16.582Z,5.82
2019-01-13T11:48:44.666Z,5.69
2019-01-13T11:51:12.756Z,5.89
2019-01-13T11:53:40.820Z,5.82
2019-01-13T11:56:08.954Z,5.87
2019-01-13T11:58:36.987Z,5.86
2019-01-13T12:01:06.861Z,5.75
2019-01-13T12:03:35.488Z,5.75
2019-01-13T12:06:03.496Z,5.98
2019-01-13T12:08:31.693Z,5.95
2019-01-13T12:10:59.724Z,6.00
2019-01-13T12:13:27.849Z,5.93
2019-01-13T12:15:55.898Z,6.07
2019-01-13T12:18:23.954Z,5.99
2019-01-13T12:20:52.050Z,5.90
2019-01-13T12:23:20.100Z,5.96
2019-01-13T12:25:52.621Z,5.86
2019-01-13T12:28:18.010Z,6.00
2019-01-13T12:30:46.527Z,6.06
2019-01-13T12:33:14.639Z,6.02
2019-01-13T12:35:42.982Z,6.01
2019-01-13T12:38:11.070Z,6.23
2019-01-13T12:40:39.657Z,6.17
2019-01-13T12:43:07.838Z,6.15
2019-01-13T12:45:35.978Z,6.14
2019-01-13T12:48:04.882Z,6.13
2019-01-13T12:50:32.916Z,6.40
2019-01-13T12:53:01.345Z,6.36
2019-01-13T12:55:29.466Z,6.48
2019-01-13T12:57:57.777Z,6.45
2019-01-13T13:00:25.924Z,6.44
2019-01-13T13:02:55.031Z,6.47
2019-01-13T13:05:23.266Z,6.62
2019-01-13T13:07:51.322Z,6.64
2019-01-13T13:10:24.064Z,6.55
2019-01-13T13:12:52.242Z,6.44
2019-01-13T13:15:20.287Z,6.61
2019-01-13T13:17:48.308Z,6.61
2019-01-13T13:20:16.421Z,6.55
2019-01-13T13:22:45.268Z,6.61
2019-01-13T13:25:14.039Z,6.47
2019-01-13T13:27:42.224Z,6.46
2019-01-13T13:30:12.236Z,6.40
2019-01-13T13:32:40.848Z,6.45
2019-01-13T13:35:09.628Z,6.46
2019-01-13T13:37:37.675Z,6.55
2019-01-13T13:40:07.788Z,6.81
2019-01-13T13:42:35.836Z,6.75
2019-01-13T13:45:04.778Z,6.74
2019-01-13T13:47:32.944Z,6.61
2019-01-13T13:50:01.426Z,6.79
2019-01-13T13:52:29.940Z,6.90
2019-01-13T13:54:58.036Z,7.13
2019-01-13T13:57:26.120Z,6.95
2019-01-13T13:59:54.926Z,7.26
2019-01-13T14:02:22.985Z,7.17
2019-01-13T14:04:51.296Z,7.28
2019-01-13T14:07:19.553Z,7.30
2019-01-13T14:09:47.937Z,7.36
2019-01-13T14:12:16.011Z,7.33
2019-01-13T14:14:44.115Z,7.38
2019-01-13T14:17:12.416Z,7.33
2019-01-13T14:19:40.586Z,7.55
2019-01-13T14:22:08.635Z,7.38
2019-01-13T14:24:37.358Z,7.48
2019-01-13T14:27:05.375Z,7.71
2019-01-13T14:29:33.767Z,7.80
2019-01-13T14:32:01.806Z,8.00
2019-01-13T14:34:29.865Z,8.04
2019-01-13T14:36:58.005Z,8.30
2019-01-13T14:39:26.027Z,8.40
2019-01-13T14:41:54.540Z,8.60
2019-01-13T14:44:22.648Z,8.52
2019-01-13T14:46:50.780Z,8.74
2019-01-13T14:49:19.117Z,8.77
2019-01-13T14:51:47.214Z,8.71
2019-01-13T14:54:15.383Z,8.64
2019-01-13T14:56:43.531Z,8.71
2019-01-13T14:59:11.556Z,8.69
2019-01-13T15:01:39.686Z,8.80
2019-01-13T15:04:07.824Z,8.54
2019-01-13T15:06:36.457Z,8.67
2019-01-13T15:09:08.464Z,8.52
2019-01-13T15:11:36.517Z,8.55
2019-01-13T15:14:04.597Z,8.55
2019-01-13T15:16:34.576Z,8.69
2019-01-13T15:19:02.976Z,8.60
2019-01-13T15:21:31.448Z,8.69
2019-01-13T15:23:59.511Z,8.81
2019-01-13T15:26:27.739Z,8.87
2019-01-13T15:28:55.781Z,8.81
2019-01-13T15:31:24.071Z,8.70
2019-01-13T15:33:52.133Z,8.92
2019-01-13T15:36:20.148Z,8.84
2019-01-13T15:38:48.621Z,8.86
2019-01-13T15:41:16.718Z,8.70
2019-01-13T15:43:44.809Z,8.74
2019-01-13T15:46:12.851Z,8.63
2019-01-13T15:48:41.062Z,8.62
2019-01-13T15:51:09.176Z,8.98
2019-01-13T15:53:37.316Z,8.91
2019-01-13T15:56:05.430Z,9.07
2019-01-13T15:58:33.845Z,9.13
2019-01-13T16:01:01.834Z,9.09
2019-01-13T16:03:30.346Z,9.13
2019-01-13T16:05:58.399Z,9.22
2019-01-13T16:08:26.842Z,9.22
2019-01-13T16:10:54.921Z,9.06
2019-01-13T16:13:23.155Z,9.14
2019-01-13T16:15:51.210Z,9.19
2019-01-13T16:18:19.321Z,8.99
2019-01-13T16:20:47.406Z,8.88
2019-01-13T16:23:15.489Z,8.93
2019-01-13T16:25:43.570Z,9.01
2019-01-13T16:28:12.002Z,8.96
2019-01-13T16:30:40.399Z,9.06
2019-01-13T16:33:09.140Z,9.12
2019-01-13T16:35:37.214Z,9.09
2019-01-13T16:38:06.825Z,9.11
2019-01-13T16:40:35.077Z,9.19
2019-01-13T16:43:03.170Z,9.13
2019-01-13T16:45:31.328Z,8.99
2019-01-13T16:47:59.414Z,8.98
2019-01-13T16:50:27.951Z,9.00
2019-01-13T16:52:56.603Z,9.10
2019-01-13T16:55:25.546Z,8.98
2019-01-13T16:57:53.780Z,9.05
2019-01-13T17:00:24.075Z,9.04
2019-01-13T17:02:52.338Z,8.98
2019-01-13T17:05:20.860Z,9.10
2019-01-13T17:07:49.050Z,9.09
2019-01-13T17:10:18.044Z,9.04
2019-01-13T17:12:46.346Z,8.88
2019-01-13T17:15:15.435Z,8.77
2019-01-13T17:17:43.860Z,8.75
2019-01-13T17:20:13.470Z,8.89
2019-01-13T17:22:42.153Z,8.74
2019-01-13T17:25:10.955Z,8.81
2019-01-13T17:27:39.470Z,8.79
2019-01-13T17:30:09.282Z,8.86
2019-01-13T17:32:37.411Z,8.81
2019-01-13T17:35:06.045Z,8.82
2019-01-13T17:37:34.207Z,8.93
2019-01-13T17:40:02.290Z,9.02
2019-01-13T17:42:30.478Z,9.03
2019-01-13T17:44:58.601Z,8.96
2019-01-13T17:47:26.692Z,9.11
2019-01-13T17:49:54.735Z,8.90
2019-01-13T17:52:22.798Z,9.08
2019-01-13T17:54:50.932Z,9.03
2019-01-13T17:57:19.609Z,9.12
2019-01-13T17:59:47.761Z,9.07
2019-01-13T18:02:16.000Z,9.22
2019-01-13T18:04:44.057Z,9.15
2019-01-13T18:07:12.110Z,9.28
2019-01-13T18:09:40.248Z,9.21
2019-01-13T18:12:08.292Z,9.24
2019-01-13T18:14:36.430Z,9.45
2019-01-13T18:17:06.521Z,9.38
2019-01-13T18:19:34.267Z,9.41
2019-01-13T18:22:02.263Z,9.28
2019-01-13T18:24:30.437Z,9.40
2019-01-13T18:26:58.617Z,9.35
2019-01-13T18:29:27.170Z,9.41
2019-01-13T18:31:56.542Z,9.48
2019-01-13T18:34:24.691Z,9.50
2019-01-13T18:36:53.150Z,9.50
2019-01-13T18:39:21.170Z,9.52
2019-01-13T18:41:49.211Z,9.51
2019-01-13T18:44:17.623Z,9.66
2019-01-13T18:46:45.770Z,9.55
2019-01-13T18:49:13.925Z,9.58
2019-01-13T18:51:41.962Z,9.63
2019-01-13T18:54:10.479Z,9.65
2019-01-13T18:56:38.608Z,9.68
2019-01-13T18:59:06.645Z,9.67
2019-01-13T19:01:35.002Z,9.58
2019-01-13T19:04:03.290Z,9.63
2019-01-13T19:06:31.391Z,9.58
2019-01-13T19:08:59.934Z,9.65
2019-01-13T19:11:32.577Z,9.69
2019-01-13T19:14:03.605Z,9.73
2019-01-13T19:16:34.722Z,9.65
2019-01-13T19:19:03.079Z,9.74
2019-01-13T19:21:32.168Z,9.76
2019-01-13T19:24:00.204Z,9.77
2019-01-13T19:26:28.374Z,9.80
2019-01-13T19:28:56.429Z,9.84
2019-01-13T19:31:24.801Z,9.91
2019-01-13T19:33:52.884Z,9.94
2019-01-13T19:36:20.970Z,9.81
2019-01-13T19:38:49.298Z,9.89
2019-01-13T19:41:17.381Z,9.98
2019-01-13T19:43:45.504Z,10.03
2019-01-13T19:46:14.880Z,10.46
2019-01-13T19:48:43.427Z,10.57
2019-01-13T19:51:11.638Z,10.54
2019-01-13T19:53:40.599Z,10.54
2019-01-13T19:56:08.680Z,10.39
2019-01-13T19:58:36.875Z,10.40
2019-01-13T20:01:05.836Z,10.05
2019-01-13T20:03:33.947Z,10.03
2019-01-13T20:06:02.818Z,9.92
2019-01-13T20:08:30.972Z,9.88
2019-01-13T20:10:59.427Z,9.84
2019-01-13T20:13:28.812Z,9.67
2019-01-13T20:15:58.017Z,9.63
2019-01-13T20:18:26.568Z,9.79
2019-01-13T20:20:54.734Z,9.48
2019-01-13T20:23:22.873Z,9.34
2019-01-13T20:25:50.953Z,9.43
2019-01-13T20:28:19.003Z,9.25
2019-01-13T20:30:47.447Z,9.23
2019-01-13T20:33:15.611Z,9.11
2019-01-13T20:35:43.638Z,9.10
2019-01-13T20:38:12.015Z,9.09
2019-01-13T20:40:40.174Z,9.02
2019-01-13T20:43:08.404Z,9.00
2019-01-13T20:45:38.213Z,8.90
2019-01-13T20:48:06.861Z,9.14
2019-01-13T20:50:35.301Z,8.89
2019-01-13T20:53:03.330Z,9.04
2019-01-13T20:55:31.696Z,9.21
2019-01-13T20:57:59.853Z,9.28
2019-01-13T21:00:28.322Z,8.73
2019-01-13T21:02:56.533Z,8.71
2019-01-13T21:05:26.899Z,8.58
2019-01-13T21:07:55.302Z,8.80
2019-01-13T21:10:23.540Z,8.70
2019-01-13T21:12:52.416Z,8.50
2019-01-13T21:15:32.087Z,9.49
2019-01-13T21:18:00.879Z,9.34
2019-01-13T21:20:28.935Z,9.58
2019-01-13T21:22:58.202Z,10.13
2019-01-13T21:25:26.286Z,10.38
2019-01-13T21:27:56.497Z,9.60
2019-01-13T21:30:25.182Z,8.54
2019-01-13T21:32:54.286Z,8.37
2019-01-13T21:35:22.442Z,8.34
2019-01-13T21:37:50.661Z,9.55
2019-01-13T21:40:18.801Z,9.58
2019-01-13T23:21:39.985Z,13.22
2019-01-13T23:24:08.162Z,15.07
2019-01-13T23:26:36.335Z,16.36
2019-01-13T23:29:04.802Z,9.91
2019-01-13T23:31:32.899Z,9.00
2019-01-13T23:34:01.009Z,8.34
2019-01-13T23:36:30.105Z,7.84
2019-01-13T23:38:59.005Z,7.84
2019-01-13T23:41:28.157Z,7.24
2019-01-13T23:43:56.643Z,7.24
2019-01-13T23:46:24.790Z,7.49
2019-01-13T23:48:55.243Z,7.33
2019-01-13T23:51:23.700Z,7.51
2019-01-13T23:53:52.281Z,7.29
2019-01-13T23:56:20.438Z,8.89
2019-01-13T23:58:48.583Z,7.58
